Terminal Aerodrome Forecast
Issued by NWS Duluth, MN

Home | Current Version | Previous Version | Text Only | Print | Product List | Glossary On
Versions: 1 2 3 4 5 6 7 8 9 10 11 12 13 14 15 16 17 18 19 20 21 22 23 24 25 26 27
000
FTUS43 KDLH 311100
TAFDLH
TAF
KDLH 311131Z 3112/0112 34010G15KT P6SM -SN SCT013 OVC022
      TEMPO 3112/3115 6SM -SN BKN013 OVC022
     FM311600 34012G17KT P6SM -SHSN BKN021 BKN050
     FM312200 03010G17KT P6SM SCT030 BKN120
     FM010400 04009KT P6SM -SN BKN025=

USA.gov is the U.S. government's official web portal to all federal, state and local government web resources and services.